Time;durP1;ratioP1;P1;durP2;ratioP2;P2;SDS_P1;SDS_P2;PMS_P1;PMS_P2;Temp;Humidity;BMP_temperature;BMP_pressure;BME280_temperature;BME280_humidity;BME280_pressure;Samples;Min_cycle;Max_cycle;Signal;HPM_P1;HPM_P2
2022/08/17 00:01:12;;;;;;;3.83;3.20;;;24.20;77.90;;;;;;5025979;28;20187;-73
2022/08/17 00:03:45;;;;;;;3.83;3.00;;;24.20;77.60;;;;;;5022211;28;20221;-73
2022/08/17 00:06:26;;;;;;;4.15;2.70;;;24.10;77.60;;;;;;4999685;28;20206;-68
2022/08/17 00:09:00;;;;;;;4.00;2.55;;;24.10;78.80;;;;;;5009548;28;20230;-73
2022/08/17 00:11:34;;;;;;;3.00;2.50;;;24.10;78.90;;;;;;5004651;28;20186;-71
2022/08/17 00:14:09;;;;;;;5.05;2.83;;;24.10;78.90;;;;;;5024788;28;20187;-68
2022/08/17 00:16:45;;;;;;;4.90;2.80;;;24.10;79.10;;;;;;4997989;28;20182;-72
2022/08/17 00:19:13;;;;;;;3.40;2.92;;;24.00;79.20;;;;;;5012942;28;20194;-71
2022/08/17 00:21:42;;;;;;;5.63;2.88;;;24.10;78.80;;;;;;5005065;28;20195;-73
2022/08/17 00:24:10;;;;;;;4.13;2.97;;;24.00;79.20;;;;;;5019099;28;20203;-69
2022/08/17 00:26:36;;;;;;;3.35;2.65;;;24.00;79.10;;;;;;5006100;28;20191;-68
2022/08/17 00:29:04;;;;;;;3.15;2.42;;;24.00;79.30;;;;;;5008026;28;20187;-73
2022/08/17 00:31:30;;;;;;;3.28;2.33;;;24.00;79.50;;;;;;4999121;28;20180;-70
2022/08/17 00:33:55;;;;;;;2.53;2.33;;;24.00;79.70;;;;;;5019334;28;20200;-72
2022/08/17 00:36:22;;;;;;;2.55;2.33;;;24.00;79.90;;;;;;5004114;28;20217;-70
2022/08/17 00:38:48;;;;;;;4.60;2.55;;;24.00;80.10;;;;;;4996861;28;20286;-72
2022/08/17 00:41:17;;;;;;;3.08;2.40;;;24.00;80.30;;;;;;5013974;28;20227;-71
2022/08/17 00:43:56;;;;;;;3.10;2.40;;;24.00;80.70;;;;;;5008356;28;20270;-69
2022/08/17 00:46:27;;;;;;;3.20;2.53;;;24.10;80.80;;;;;;5018349;28;20167;-72
2022/08/17 00:48:53;;;;;;;3.22;2.25;;;24.00;81.10;;;;;;5019162;28;20205;-73
2022/08/17 00:51:43;;;;;;;4.70;2.40;;;24.00;81.00;;;;;;5008731;28;20183;-69
2022/08/17 00:54:12;;;;;;;2.90;2.20;;;24.00;81.70;;;;;;5023368;28;20187;-70
2022/08/17 00:56:47;;;;;;;3.03;2.50;;;24.00;81.70;;;;;;5018642;28;20221;-70
2022/08/17 00:59:19;;;;;;;3.28;2.42;;;24.00;82.50;;;;;;5007450;28;20178;-70
2022/08/17 01:01:48;;;;;;;2.67;2.35;;;24.00;81.90;;;;;;5022155;28;20187;-73
2022/08/17 01:04:16;;;;;;;2.75;2.50;;;23.90;82.00;;;;;;5023130;28;20289;-67
2022/08/17 01:06:48;;;;;;;4.40;2.47;;;23.90;82.10;;;;;;5002451;28;20262;-72
2022/08/17 01:09:15;;;;;;;2.65;2.30;;;23.90;82.10;;;;;;4999363;28;20266;-72
2022/08/17 01:11:43;;;;;;;4.38;2.70;;;23.90;82.30;;;;;;5006640;28;20238;-72
2022/08/17 01:14:09;;;;;;;3.22;2.65;;;23.90;82.40;;;;;;5011703;28;20182;-72
2022/08/17 01:16:36;;;;;;;4.03;2.70;;;23.90;82.70;;;;;;5013467;28;20182;-69
2022/08/17 01:19:21;;;;;;;2.90;2.50;;;23.90;82.90;;;;;;5027413;28;20305;-71
2022/08/17 01:21:50;;;;;;;2.63;2.28;;;23.90;83.70;;;;;;5027558;28;20438;-66
2022/08/17 01:24:18;;;;;;;3.78;2.13;;;23.90;83.30;;;;;;5006103;28;20230;-72
2022/08/17 01:26:45;;;;;;;3.03;2.50;;;23.90;83.30;;;;;;5017453;28;20273;-68
2022/08/17 01:29:11;;;;;;;2.80;2.50;;;23.90;83.30;;;;;;5012381;28;20175;-72
2022/08/17 01:31:44;;;;;;;3.15;2.40;;;23.90;83.50;;;;;;5027018;28;20196;-69
2022/08/17 01:34:12;;;;;;;4.97;2.50;;;23.90;84.20;;;;;;5006021;28;22017;-72
2022/08/17 01:36:40;;;;;;;3.05;2.53;;;23.90;83.70;;;;;;5027958;28;20206;-71
2022/08/17 01:39:11;;;;;;;2.72;2.45;;;23.90;84.60;;;;;;5022101;28;20206;-71
2022/08/17 01:41:39;;;;;;;3.40;2.58;;;23.90;84.20;;;;;;5022099;28;20247;-72
2022/08/17 01:44:06;;;;;;;4.18;3.10;;;23.90;84.10;;;;;;5007360;28;20211;-71
2022/08/17 01:46:36;;;;;;;3.08;2.45;;;23.90;84.20;;;;;;5008694;28;20203;-72
2022/08/17 01:49:06;;;;;;;3.88;2.30;;;23.80;84.40;;;;;;5010323;28;20196;-71
2022/08/17 01:51:32;;;;;;;2.97;2.50;;;23.80;84.90;;;;;;5011315;28;20251;-73
2022/08/17 01:54:04;;;;;;;2.53;2.33;;;23.80;84.70;;;;;;5006428;28;20195;-72
2022/08/17 01:56:32;;;;;;;2.42;2.22;;;23.80;85.10;;;;;;5011945;28;20178;-72
2022/08/17 01:58:58;;;;;;;2.75;2.30;;;23.80;85.40;;;;;;5024451;28;20187;-71
2022/08/17 02:01:28;;;;;;;2.30;2.10;;;23.70;85.00;;;;;;5025992;28;20230;-70
2022/08/17 02:04:00;;;;;;;3.15;2.20;;;23.70;85.60;;;;;;5026243;28;20215;-69
2022/08/17 02:06:26;;;;;;;1.92;1.83;;;23.70;85.60;;;;;;5017148;28;20180;-71
2022/08/17 02:08:54;;;;;;;2.70;2.50;;;23.60;85.20;;;;;;4997832;28;20168;-72
2022/08/17 02:11:21;;;;;;;2.22;2.03;;;23.60;85.40;;;;;;5026102;28;20186;-72
2022/08/17 02:13:48;;;;;;;3.97;2.67;;;23.60;85.60;;;;;;5009475;28;20195;-72
2022/08/17 02:16:15;;;;;;;3.00;2.38;;;23.50;86.00;;;;;;5009740;28;20179;-72
2022/08/17 02:18:43;;;;;;;3.83;2.67;;;23.50;86.50;;;;;;5024725;28;20236;-68
2022/08/17 02:21:09;;;;;;;3.13;2.35;;;23.50;86.60;;;;;;5005763;28;20203;-69
2022/08/17 02:23:42;;;;;;;4.97;2.30;;;23.40;86.70;;;;;;5002585;28;20207;-72
2022/08/17 02:26:10;;;;;;;2.75;2.28;;;23.30;87.20;;;;;;5011478;28;20260;-72
2022/08/17 02:28:38;;;;;;;2.40;2.17;;;23.30;87.60;;;;;;5007777;28;20217;-72
2022/08/17 02:31:07;;;;;;;3.33;2.40;;;23.30;87.30;;;;;;5006475;28;20202;-73
2022/08/17 02:33:36;;;;;;;2.50;2.13;;;23.20;88.00;;;;;;5011995;28;20186;-72
2022/08/17 02:36:03;;;;;;;3.38;2.47;;;23.20;88.20;;;;;;5024248;28;20209;-71
2022/08/17 02:38:31;;;;;;;3.10;2.38;;;23.20;88.30;;;;;;5001572;28;20179;-73
2022/08/17 02:41:00;;;;;;;3.17;2.13;;;23.20;88.50;;;;;;5007342;28;20175;-73
2022/08/17 02:43:33;;;;;;;2.45;2.22;;;23.20;88.80;;;;;;5018437;28;20203;-73
2022/08/17 02:46:04;;;;;;;2.78;2.20;;;23.10;89.50;;;;;;5008013;28;20160;-72
2022/08/17 02:48:32;;;;;;;3.13;2.40;;;23.00;89.60;;;;;;5019731;28;20191;-73
2022/08/17 02:50:58;;;;;;;3.55;2.35;;;23.00;89.80;;;;;;5009229;28;20206;-71
2022/08/17 02:53:24;;;;;;;2.50;2.28;;;23.00;89.90;;;;;;5003811;28;20180;-73
2022/08/17 02:55:50;;;;;;;3.03;2.70;;;23.00;90.10;;;;;;5001983;28;20215;-74
2022/08/17 02:58:16;;;;;;;2.20;2.00;;;22.90;90.20;;;;;;5021986;28;20218;-73
2022/08/17 03:00:47;;;;;;;2.92;2.13;;;22.90;90.20;;;;;;5000974;28;20180;-73
2022/08/17 03:03:17;;;;;;;2.80;2.35;;;22.90;90.40;;;;;;5022045;28;20282;-72
2022/08/17 03:05:47;;;;;;;3.08;2.10;;;22.90;90.40;;;;;;5007119;28;20167;-72
2022/08/17 03:08:14;;;;;;;3.35;2.40;;;22.90;90.50;;;;;;5023735;28;20182;-71
2022/08/17 03:10:41;;;;;;;2.33;1.95;;;22.90;90.60;;;;;;5012748;28;20195;-68
2022/08/17 03:13:06;;;;;;;2.67;2.35;;;22.90;90.80;;;;;;5022237;28;20176;-73
2022/08/17 03:15:33;;;;;;;3.00;2.30;;;22.80;90.90;;;;;;5013849;28;20180;-73
2022/08/17 03:18:00;;;;;;;3.88;2.40;;;22.80;91.00;;;;;;5007431;28;20196;-68
2022/08/17 03:20:29;;;;;;;2.72;2.10;;;22.80;91.20;;;;;;5003756;28;20184;-72
2022/08/17 03:22:56;;;;;;;2.50;1.98;;;22.80;91.30;;;;;;5009426;28;20294;-73
2022/08/17 03:25:31;;;;;;;2.83;2.53;;;22.80;91.50;;;;;;5007375;28;20187;-73
2022/08/17 03:27:57;;;;;;;2.63;2.08;;;22.80;92.00;;;;;;5020962;28;20194;-73
2022/08/17 03:30:26;;;;;;;4.82;2.25;;;22.80;91.70;;;;;;5014856;28;20180;-69
2022/08/17 03:32:59;;;;;;;2.83;2.35;;;22.80;91.90;;;;;;5004702;28;20175;-72
2022/08/17 03:35:30;;;;;;;2.35;2.05;;;22.80;92.30;;;;;;5019669;28;20180;-70
2022/08/17 03:37:56;;;;;;;2.60;2.40;;;22.80;92.20;;;;;;4998680;28;20273;-73
2022/08/17 03:40:25;;;;;;;2.63;2.10;;;22.80;92.20;;;;;;5016421;28;20203;-73
2022/08/17 03:42:52;;;;;;;3.38;2.42;;;22.80;92.40;;;;;;5024435;28;20207;-72
2022/08/17 03:56:41;;;;;;;2.63;2.10;;;22.80;93.20;;;;;;5006127;28;20252;-73
2022/08/17 03:59:15;;;;;;;2.83;2.50;;;22.80;93.00;;;;;;5022869;28;20264;-72
2022/08/17 04:01:46;;;;;;;3.15;2.20;;;22.90;93.30;;;;;;5012768;28;20203;-73
2022/08/17 04:04:12;;;;;;;2.42;2.22;;;22.90;93.40;;;;;;5000598;28;20226;-73
2022/08/17 04:06:39;;;;;;;4.60;2.25;;;22.90;93.40;;;;;;5027455;28;20214;-70
2022/08/17 04:09:08;;;;;;;2.63;2.42;;;22.90;93.50;;;;;;5004516;28;20179;-72
2022/08/17 04:11:34;;;;;;;2.60;2.30;;;22.90;93.60;;;;;;5014308;28;20191;-70
2022/08/17 04:14:01;;;;;;;6.07;5.53;;;22.90;93.70;;;;;;5008268;28;20204;-72
2022/08/17 04:16:27;;;;;;;5.60;3.90;;;22.90;93.80;;;;;;5010442;28;20278;-71
2022/08/17 04:18:55;;;;;;;5.18;3.80;;;22.90;93.90;;;;;;5002563;28;20180;-72
2022/08/17 04:21:21;;;;;;;3.78;3.10;;;22.90;94.00;;;;;;5007176;28;20187;-73
2022/08/17 04:23:47;;;;;;;5.82;4.13;;;22.90;94.00;;;;;;5005659;28;20274;-69
2022/08/17 04:26:17;;;;;;;3.88;3.30;;;23.00;94.10;;;;;;5005371;28;20183;-74
2022/08/17 04:28:43;;;;;;;4.30;3.45;;;23.00;94.40;;;;;;5012560;28;20171;-75
2022/08/17 04:31:13;;;;;;;3.38;2.95;;;23.00;94.20;;;;;;5006810;28;20203;-68
2022/08/17 04:33:41;;;;;;;3.28;2.97;;;23.00;94.30;;;;;;5023628;28;20266;-72
2022/08/17 04:36:07;;;;;;;3.17;2.88;;;23.00;94.30;;;;;;5000443;28;20215;-73
2022/08/17 04:38:35;;;;;;;3.22;2.92;;;23.00;94.40;;;;;;4993982;28;20180;-73
2022/08/17 04:43:53;;;;;;;3.30;2.80;;;23.00;94.50;;;;;;5008491;28;20225;-73
2022/08/17 04:46:28;;;;;;;4.60;3.40;;;23.00;94.60;;;;;;5006620;28;20209;-72
2022/08/17 04:48:56;;;;;;;3.08;2.78;;;23.00;94.90;;;;;;5004637;28;20199;-72
2022/08/17 04:51:28;;;;;;;3.45;2.50;;;23.10;94.90;;;;;;5021642;28;20206;-72
2022/08/17 04:53:58;;;;;;;5.82;3.75;;;23.00;95.00;;;;;;5022947;28;20163;-72
2022/08/17 04:56:28;;;;;;;3.75;3.20;;;23.10;95.10;;;;;;5024473;28;20175;-72
2022/08/17 04:59:01;;;;;;;6.88;4.30;;;23.10;95.10;;;;;;5008272;28;20180;-68
2022/08/17 05:01:30;;;;;;;4.25;3.50;;;23.10;95.40;;;;;;4997756;28;20218;-72
2022/08/17 05:04:00;;;;;;;3.35;3.05;;;23.10;95.30;;;;;;4998463;28;20203;-73
2022/08/17 05:06:31;;;;;;;4.05;2.97;;;23.10;95.30;;;;;;5014655;28;20258;-68
2022/08/17 05:08:58;;;;;;;7.95;6.45;;;23.10;95.30;;;;;;5001910;28;20259;-71
2022/08/17 05:11:25;;;;;;;9.68;8.65;;;23.10;95.40;;;;;;5013672;28;20250;-72
2022/08/17 05:13:51;;;;;;;7.10;5.97;;;23.20;95.40;;;;;;5004554;28;20180;-72
2022/08/17 05:16:21;;;;;;;5.22;4.32;;;23.20;95.40;;;;;;5002293;28;20194;-70
2022/08/17 05:18:47;;;;;;;3.72;3.42;;;23.20;95.50;;;;;;5018480;28;20191;-72
2022/08/17 05:21:13;;;;;;;3.58;3.20;;;23.20;95.40;;;;;;5016818;28;20183;-72
2022/08/17 05:23:40;;;;;;;7.35;6.20;;;23.20;95.50;;;;;;5006373;28;20261;-71
2022/08/17 05:26:06;;;;;;;5.40;4.63;;;23.20;95.50;;;;;;5015299;28;20176;-72
2022/08/17 05:28:34;;;;;;;4.10;3.10;;;23.30;95.60;;;;;;4996888;28;20500;-73
2022/08/17 05:31:02;;;;;;;4.00;3.50;;;23.30;95.60;;;;;;4999766;28;20203;-71
2022/08/17 05:33:36;;;;;;;4.55;2.95;;;23.30;95.70;;;;;;5008197;28;20232;-71
2022/08/17 05:36:04;;;;;;;3.47;2.90;;;23.30;96.00;;;;;;4982326;28;20215;-72
2022/08/17 05:38:34;;;;;;;6.05;2.90;;;23.30;95.90;;;;;;5002163;28;20179;-72
2022/08/17 05:41:03;;;;;;;2.80;2.53;;;23.30;96.00;;;;;;5011903;28;20196;-72
2022/08/17 05:43:38;;;;;;;4.18;2.72;;;23.40;95.90;;;;;;5008242;28;20219;-72
2022/08/17 05:46:26;;;;;;;2.50;2.30;;;23.40;96.10;;;;;;5007304;28;20194;-72
2022/08/17 05:49:02;;;;;;;3.00;2.42;;;23.50;96.30;;;;;;5022676;28;20179;-73
2022/08/17 05:51:54;;;;;;;2.83;2.55;;;23.50;96.10;;;;;;5029817;28;20195;-71
2022/08/17 05:54:38;;;;;;;3.70;2.60;;;23.50;96.10;;;;;;5013979;28;20262;-71
2022/08/17 05:57:35;;;;;;;2.53;2.30;;;23.50;95.80;;;;;;5029703;28;20202;-73
2022/08/17 06:00:09;;;;;;;3.38;2.40;;;23.60;96.20;;;;;;5023500;28;20186;-72
2022/08/17 06:03:17;;;;;;;3.97;1.95;;;23.60;95.80;;;;;;5030785;28;20213;-70
2022/08/17 06:06:01;;;;;;;2.83;2.50;;;23.60;96.00;;;;;;5013385;28;20203;-72
2022/08/17 06:08:39;;;;;;;3.28;2.03;;;23.70;96.00;;;;;;5010697;28;20251;-72
2022/08/17 06:11:53;;;;;;;3.63;2.50;;;23.70;96.00;;;;;;5007378;28;20269;-72
2022/08/17 06:14:27;;;;;;;2.92;2.50;;;23.70;96.10;;;;;;4993468;28;20199;-73
2022/08/17 06:17:00;;;;;;;2.40;2.10;;;23.80;95.80;;;;;;5009186;28;20194;-71
2022/08/17 06:19:39;;;;;;;3.35;2.28;;;23.80;95.70;;;;;;5010017;28;20207;-72
2022/08/17 06:22:07;;;;;;;3.85;2.72;;;23.90;95.80;;;;;;5018842;28;20167;-72
2022/08/17 06:24:36;;;;;;;3.35;3.05;;;23.90;95.70;;;;;;5030427;28;20175;-72
2022/08/17 06:27:19;;;;;;;5.13;3.10;;;23.90;95.90;;;;;;5012734;28;20242;-72
2022/08/17 06:29:45;;;;;;;3.75;3.00;;;24.00;96.00;;;;;;5004737;28;20183;-72
2022/08/17 06:32:12;;;;;;;4.38;3.10;;;24.00;95.80;;;;;;5013367;28;20200;-72
2022/08/17 06:34:40;;;;;;;3.58;2.75;;;24.10;95.70;;;;;;5013781;28;20171;-73
2022/08/17 06:37:38;;;;;;;7.55;3.67;;;24.10;95.60;;;;;;5013210;28;20206;-71
2022/08/17 06:40:44;;;;;;;5.57;2.83;;;24.10;96.20;;;;;;5026072;28;20183;-72
2022/08/17 06:43:18;;;;;;;3.67;2.80;;;24.10;95.80;;;;;;5012997;28;20198;-72
2022/08/17 06:45:56;;;;;;;5.15;2.88;;;24.10;95.50;;;;;;5006264;28;20188;-68
2022/08/17 06:48:48;;;;;;;3.08;2.58;;;24.20;95.70;;;;;;5030369;28;20310;-71
2022/08/17 06:51:24;;;;;;;2.97;2.47;;;24.20;95.70;;;;;;5003085;28;20179;-72
2022/08/17 06:53:59;;;;;;;6.10;2.70;;;24.30;95.70;;;;;;5030622;28;20238;-71
2022/08/17 06:57:07;;;;;;;4.40;2.85;;;24.30;95.70;;;;;;5013302;28;20194;-71
2022/08/17 06:59:44;;;;;;;3.55;2.65;;;24.40;95.70;;;;;;4995504;28;20186;-72
2022/08/17 07:02:18;;;;;;;3.70;2.30;;;24.50;95.80;;;;;;5011235;28;20203;-71
2022/08/17 07:04:45;;;;;;;4.43;2.63;;;24.50;95.60;;;;;;5020014;28;20210;-71
2022/08/17 07:09:58;;;;;;;4.95;2.40;;;24.70;95.40;;;;;;5007619;28;20218;-73
2022/08/17 07:12:32;;;;;;;3.00;2.55;;;24.80;95.20;;;;;;5008432;28;20191;-72
2022/08/17 07:15:04;;;;;;;5.35;2.60;;;24.90;95.10;;;;;;5011255;28;20199;-72
2022/08/17 07:17:35;;;;;;;3.33;2.50;;;24.90;95.00;;;;;;5012278;28;20183;-72
2022/08/17 07:20:09;;;;;;;6.38;2.80;;;25.00;94.80;;;;;;5011860;28;20191;-72
2022/08/17 07:23:12;;;;;;;6.18;2.65;;;25.10;94.70;;;;;;5000794;28;20225;-72
2022/08/17 07:25:37;;;;;;;3.08;2.70;;;25.20;94.50;;;;;;5014654;28;20187;-67
2022/08/17 07:28:11;;;;;;;4.50;2.53;;;25.20;94.60;;;;;;5010185;28;20207;-72
2022/08/17 07:30:52;;;;;;;4.47;2.50;;;25.30;94.40;;;;;;5026041;28;20185;-72
2022/08/17 07:33:24;;;;;;;3.25;2.40;;;25.30;94.20;;;;;;5013520;28;20499;-70
2022/08/17 07:35:50;;;;;;;2.92;2.40;;;25.40;94.10;;;;;;5013323;28;20206;-72
2022/08/17 07:38:24;;;;;;;3.50;2.70;;;25.40;94.10;;;;;;5013860;28;20179;-72
2022/08/17 07:40:56;;;;;;;2.90;2.60;;;25.50;93.90;;;;;;5007502;28;20218;-72
2022/08/17 07:43:22;;;;;;;4.35;2.80;;;25.60;93.80;;;;;;4994062;28;20208;-73
2022/08/17 07:48:53;;;;;;;2.92;2.33;;;25.70;93.50;;;;;;5012627;28;20194;-72
2022/08/17 07:51:27;;;;;;;3.10;2.80;;;25.70;93.50;;;;;;5024556;28;20176;-72
2022/08/17 07:54:00;;;;;;;3.72;2.72;;;25.70;93.40;;;;;;5025630;28;20183;-73
2022/08/17 07:56:39;;;;;;;4.72;3.22;;;25.70;93.70;;;;;;5005126;28;20227;-71
2022/08/17 07:59:21;;;;;;;2.95;2.67;;;25.80;93.10;;;;;;5014815;28;20203;-72
2022/08/17 08:01:59;;;;;;;3.78;3.05;;;25.80;93.10;;;;;;5012298;28;20174;-73
2022/08/17 08:04:26;;;;;;;3.50;3.03;;;25.90;93.00;;;;;;5015425;28;20289;-72
2022/08/17 08:06:53;;;;;;;5.10;3.30;;;25.90;93.00;;;;;;5012126;28;20170;-71
2022/08/17 08:09:33;;;;;;;4.25;2.90;;;25.90;92.80;;;;;;5011801;28;20546;-72
2022/08/17 08:12:20;;;;;;;3.38;3.08;;;25.90;92.60;;;;;;5025354;28;20194;-72
2022/08/17 08:15:02;;;;;;;2.83;2.58;;;25.90;92.60;;;;;;5010028;28;20248;-72
2022/08/17 08:17:34;;;;;;;6.25;3.05;;;25.90;92.50;;;;;;5021335;28;20218;-73
2022/08/17 08:20:03;;;;;;;4.05;2.80;;;25.90;92.50;;;;;;5013764;28;20251;-72
2022/08/17 08:22:38;;;;;;;3.60;2.65;;;25.80;92.40;;;;;;5025489;28;20202;-73
2022/08/17 08:25:30;;;;;;;3.63;2.97;;;25.90;92.40;;;;;;5024535;28;20398;-72
2022/08/17 08:28:03;;;;;;;3.63;3.28;;;25.80;92.40;;;;;;4983664;28;20181;-71
2022/08/17 08:30:33;;;;;;;6.15;3.10;;;25.80;92.40;;;;;;5005401;28;20219;-71
2022/08/17 08:33:13;;;;;;;4.35;2.88;;;25.70;92.40;;;;;;5004833;28;20187;-72
2022/08/17 08:35:46;;;;;;;6.50;3.40;;;25.70;92.30;;;;;;5008923;28;21035;-72
2022/08/17 08:38:35;;;;;;;5.50;3.45;;;25.70;92.40;;;;;;5012261;28;20183;-72
2022/08/17 08:41:27;;;;;;;4.00;3.50;;;25.70;92.30;;;;;;5005821;28;20187;-72
2022/08/17 08:44:15;;;;;;;4.35;3.95;;;25.70;92.10;;;;;;5000882;28;20214;-72
2022/08/17 08:47:13;;;;;;;6.75;4.20;;;25.60;92.10;;;;;;5011927;28;20190;-72
2022/08/17 08:49:50;;;;;;;4.40;4.00;;;25.60;92.00;;;;;;5002386;28;20226;-72
2022/08/17 08:52:22;;;;;;;4.47;4.00;;;25.50;92.00;;;;;;4998034;28;20243;-73
2022/08/17 08:54:59;;;;;;;4.70;4.00;;;25.50;92.00;;;;;;4998288;28;20187;-72
2022/08/17 08:57:31;;;;;;;4.90;4.40;;;25.50;92.10;;;;;;4990011;28;20190;-72
2022/08/17 09:00:14;;;;;;;5.97;4.82;;;25.40;92.10;;;;;;5002296;28;20283;-72
2022/08/17 09:03:05;;;;;;;4.88;4.35;;;25.40;92.10;;;;;;5001070;28;20191;-73
2022/08/17 09:05:54;;;;;;;4.88;4.38;;;25.40;92.20;;;;;;4997888;28;20183;-72
2022/08/17 09:08:33;;;;;;;5.35;4.10;;;25.40;92.30;;;;;;5001552;28;20219;-72
2022/08/17 09:11:23;;;;;;;5.00;4.50;;;25.40;92.30;;;;;;5011663;28;20314;-72
2022/08/17 09:13:58;;;;;;;5.70;4.65;;;25.40;92.30;;;;;;4980903;28;20211;-71
2022/08/17 09:16:29;;;;;;;5.63;4.80;;;25.40;92.30;;;;;;5003335;28;20186;-72
2022/08/17 09:19:28;;;;;;;7.43;4.43;;;25.40;92.30;;;;;;5006981;28;20187;-73
2022/08/17 09:21:59;;;;;;;6.00;4.57;;;25.30;92.40;;;;;;5001699;28;21990;-72
2022/08/17 09:24:40;;;;;;;7.32;4.90;;;25.30;92.30;;;;;;5005490;28;20289;-73
2022/08/17 09:27:17;;;;;;;8.98;5.15;;;25.30;92.40;;;;;;5002443;28;20266;-72
2022/08/17 09:29:48;;;;;;;6.05;4.85;;;25.20;92.40;;;;;;4995346;28;20238;-73
2022/08/17 09:32:18;;;;;;;5.03;4.53;;;25.20;92.40;;;;;;5006029;28;20181;-72
2022/08/17 09:34:55;;;;;;;6.65;4.47;;;25.10;92.40;;;;;;5023233;28;20160;-72
2022/08/17 09:37:36;;;;;;;10.38;4.85;;;25.00;92.80;;;;;;5007535;28;20206;-72
2022/08/17 09:40:08;;;;;;;6.20;4.38;;;25.00;93.00;;;;;;5016201;28;20202;-72
2022/08/17 09:42:59;;;;;;;7.63;4.53;;;24.90;93.00;;;;;;5007296;28;20183;-71
2022/08/17 09:45:37;;;;;;;7.70;5.55;;;24.90;93.50;;;;;;4987794;28;20176;-72
2022/08/17 09:48:30;;;;;;;12.13;5.25;;;25.00;94.10;;;;;;5002455;28;20194;-73
2022/08/17 09:51:08;;;;;;;6.82;5.15;;;25.10;94.20;;;;;;5004831;28;20171;-72
2022/08/17 09:53:38;;;;;;;5.88;5.28;;;25.20;94.40;;;;;;5001514;28;20246;-73
2022/08/17 09:56:34;;;;;;;7.10;5.90;;;25.40;94.50;;;;;;5006528;28;20210;-73
2022/08/17 09:59:40;;;;;;;6.45;5.72;;;25.60;94.50;;;;;;4999931;28;20210;-73
2022/08/17 10:02:39;;;;;;;6.35;5.60;;;25.90;94.00;;;;;;4996115;28;20214;-73
2022/08/17 10:05:24;;;;;;;6.28;5.68;;;26.10;93.80;;;;;;5000682;28;20203;-73
2022/08/17 10:07:58;;;;;;;7.65;6.57;;;26.20;93.40;;;;;;5002732;28;20180;-73
2022/08/17 10:11:04;;;;;;;7.13;5.75;;;26.30;93.10;;;;;;5007649;28;20234;-73
2022/08/17 10:13:47;;;;;;;7.78;5.95;;;26.40;92.60;;;;;;4962703;28;20219;-73
2022/08/17 10:16:26;;;;;;;8.50;5.43;;;26.40;92.40;;;;;;5003779;28;20175;-71
2022/08/17 10:19:09;;;;;;;6.25;5.65;;;26.40;92.40;;;;;;5011967;28;20171;-70
2022/08/17 10:27:20;;;;;;;6.93;4.95;;;27.00;92.60;;;;;;5002622;28;20179;-72
2022/08/17 10:29:59;;;;;;;5.75;4.90;;;27.50;92.50;;;;;;4997396;28;20235;-71
2022/08/17 10:32:34;;;;;;;5.32;4.82;;;28.00;91.80;;;;;;5002988;28;20169;-72
2022/08/17 10:35:11;;;;;;;6.10;5.50;;;28.30;90.20;;;;;;5002364;28;20194;-71
2022/08/17 10:37:45;;;;;;;5.82;5.22;;;28.60;90.40;;;;;;4997736;28;20187;-71
2022/08/17 10:40:44;;;;;;;8.85;4.93;;;28.90;90.00;;;;;;5026489;28;20171;-72
2022/08/17 10:43:47;;;;;;;5.03;4.47;;;29.20;88.80;;;;;;5015085;28;20212;-72
2022/08/17 10:46:24;;;;;;;6.00;5.20;;;29.50;83.60;;;;;;5020684;28;20242;-72
2022/08/17 10:49:19;;;;;;;6.65;5.60;;;29.60;87.00;;;;;;4996756;28;20202;-68
2022/08/17 10:51:48;;;;;;;5.57;5.00;;;29.60;85.00;;;;;;4993996;28;20228;-70
2022/08/17 10:54:39;;;;;;;5.70;5.10;;;29.50;86.00;;;;;;5004135;28;20208;-71
2022/08/17 10:57:43;;;;;;;6.50;5.03;;;29.30;85.20;;;;;;5003773;28;20240;-72
2022/08/17 11:00:35;;;;;;;6.43;5.70;;;29.10;85.20;;;;;;4970191;28;20235;-72
2022/08/17 11:03:01;;;;;;;6.50;5.38;;;28.90;85.30;;;;;;5002241;28;20208;-72
2022/08/17 11:05:52;;;;;;;7.95;5.82;;;28.70;85.40;;;;;;5002663;28;20168;-72
2022/08/17 11:08:43;;;;;;;6.55;5.90;;;28.50;85.30;;;;;;4988424;28;20180;-71
2022/08/17 11:11:35;;;;;;;8.85;6.00;;;28.40;84.80;;;;;;5001457;28;20175;-71
2022/08/17 11:14:08;;;;;;;7.55;6.32;;;28.20;85.70;;;;;;5008406;28;20208;-71
2022/08/17 11:16:46;;;;;;;7.13;6.43;;;28.10;85.80;;;;;;5008016;28;20176;-71
2022/08/17 11:19:45;;;;;;;6.50;5.90;;;28.10;86.00;;;;;;4994753;28;20237;-72
2022/08/17 11:22:29;;;;;;;11.43;6.65;;;28.00;86.20;;;;;;5010405;28;20223;-72
2022/08/17 11:25:11;;;;;;;7.05;6.35;;;28.00;86.10;;;;;;5001261;28;20218;-69
2022/08/17 11:27:37;;;;;;;7.32;6.63;;;28.00;86.00;;;;;;4999959;28;20174;-71
2022/08/17 11:30:13;;;;;;;9.38;6.43;;;28.00;86.60;;;;;;5021842;28;20462;-68
2022/08/17 11:32:52;;;;;;;7.72;6.95;;;28.00;86.20;;;;;;5021032;28;20178;-67
2022/08/17 11:35:21;;;;;;;7.45;6.38;;;28.00;85.30;;;;;;5005899;28;20179;-67
2022/08/17 11:38:23;;;;;;;7.13;6.43;;;28.10;86.70;;;;;;5007292;28;20211;-73
2022/08/17 11:41:33;;;;;;;7.85;6.90;;;28.30;86.70;;;;;;5005169;28;20183;-72
2022/08/17 11:44:36;;;;;;;7.70;6.47;;;28.50;85.40;;;;;;4988629;28;20211;-72
2022/08/17 11:53:35;;;;;;;7.18;6.47;;;29.30;87.30;;;;;;4993754;28;20187;-72
2022/08/17 11:56:04;;;;;;;8.35;7.00;;;29.70;86.00;;;;;;5016974;28;20273;-72
2022/08/17 11:58:33;;;;;;;7.00;6.32;;;30.00;85.70;;;;;;5001881;28;20180;-74
2022/08/17 12:01:02;;;;;;;6.65;6.05;;;30.10;85.80;;;;;;5024548;28;20207;-74
2022/08/17 12:03:30;;;;;;;6.47;5.97;;;30.20;84.90;;;;;;5027471;28;20265;-73
2022/08/17 12:06:16;;;;;;;7.15;6.55;;;30.30;83.90;;;;;;5017347;28;20174;-72
2022/08/17 12:08:49;;;;;;;7.80;6.65;;;30.40;83.00;;;;;;5023661;28;20253;-75
2022/08/17 12:11:40;;;;;;;7.68;6.90;;;30.40;82.20;;;;;;5019669;28;20201;-72
2022/08/17 12:14:07;;;;;;;7.55;6.78;;;30.40;80.70;;;;;;5025357;28;20206;-72
2022/08/17 12:16:36;;;;;;;10.98;6.82;;;30.40;82.50;;;;;;5030979;28;20182;-71
2022/08/17 12:19:02;;;;;;;7.13;6.43;;;30.50;82.30;;;;;;5010728;28;20179;-70
2022/08/17 12:21:44;;;;;;;7.40;6.70;;;30.60;81.80;;;;;;5012792;28;20230;-72
2022/08/17 12:24:12;;;;;;;7.50;6.80;;;30.60;81.60;;;;;;4999449;28;20198;-72
2022/08/17 12:26:42;;;;;;;8.07;6.78;;;30.80;81.30;;;;;;5028437;28;20174;-71
2022/08/17 12:29:15;;;;;;;8.60;7.72;;;30.80;81.20;;;;;;4999897;28;20207;-73
2022/08/17 12:31:48;;;;;;;8.30;7.50;;;31.00;78.50;;;;;;5011184;28;20178;-74
2022/08/17 12:34:41;;;;;;;8.00;7.20;;;31.00;79.10;;;;;;5027550;28;20258;-74
2022/08/17 12:37:14;;;;;;;7.32;6.60;;;31.10;76.30;;;;;;5028365;28;20289;-75
2022/08/17 12:39:52;;;;;;;8.32;7.53;;;31.10;78.70;;;;;;5010512;28;20209;-74
2022/08/17 12:42:33;;;;;;;8.43;7.72;;;31.10;77.90;;;;;;5009730;28;20365;-73
2022/08/17 12:44:59;;;;;;;8.25;7.55;;;31.20;77.30;;;;;;4998945;28;20178;-73
2022/08/17 12:47:28;;;;;;;8.57;7.78;;;31.30;78.20;;;;;;5014318;28;20199;-74
2022/08/17 12:50:07;;;;;;;8.35;7.57;;;31.30;76.70;;;;;;5017082;28;20170;-73
2022/08/17 12:52:38;;;;;;;7.82;7.13;;;31.30;76.20;;;;;;5011687;28;20194;-72
2022/08/17 12:55:06;;;;;;;7.47;6.88;;;31.30;76.70;;;;;;5008275;28;20167;-72
2022/08/17 12:57:39;;;;;;;7.03;6.43;;;31.30;76.50;;;;;;5026798;28;20209;-73
2022/08/17 13:00:11;;;;;;;7.15;6.50;;;31.30;76.70;;;;;;5007745;28;20194;-72
2022/08/17 13:02:45;;;;;;;8.55;7.50;;;31.30;76.20;;;;;;5026883;28;20206;-71
2022/08/17 13:05:36;;;;;;;7.85;7.07;;;31.30;74.70;;;;;;5015521;28;20194;-74
2022/08/17 13:08:24;;;;;;;7.82;7.07;;;31.30;72.70;;;;;;5011188;28;20246;-73
2022/08/17 13:11:13;;;;;;;7.60;6.80;;;31.20;73.80;;;;;;5010912;28;20167;-73
2022/08/17 13:13:45;;;;;;;6.85;6.25;;;31.20;72.70;;;;;;5000090;28;20170;-72
2022/08/17 13:16:11;;;;;;;7.30;6.60;;;31.20;74.70;;;;;;5017089;28;20255;-71
2022/08/17 13:19:14;;;;;;;8.18;7.05;;;31.30;75.50;;;;;;5009817;28;20187;-71
2022/08/17 13:22:08;;;;;;;8.15;7.35;;;31.40;74.00;;;;;;5003002;28;20198;-72
2022/08/17 13:24:36;;;;;;;7.70;7.05;;;31.50;71.30;;;;;;5007263;28;20230;-72
2022/08/17 13:27:06;;;;;;;7.13;6.32;;;31.50;72.90;;;;;;5021812;28;20179;-72
2022/08/17 13:29:35;;;;;;;6.55;5.93;;;31.40;73.30;;;;;;5024539;28;20249;-72
2022/08/17 13:32:07;;;;;;;7.68;6.95;;;31.30;73.30;;;;;;5026664;28;20175;-75
2022/08/17 13:34:40;;;;;;;8.82;6.53;;;31.30;72.50;;;;;;5009691;28;20191;-72
2022/08/17 13:37:25;;;;;;;7.72;6.55;;;31.20;72.60;;;;;;5023594;28;20218;-71
2022/08/17 13:40:11;;;;;;;6.88;6.28;;;31.20;73.10;;;;;;5007225;28;20270;-74
2022/08/17 13:42:49;;;;;;;7.72;7.03;;;31.40;74.10;;;;;;4980553;28;20402;-72
2022/08/17 13:45:30;;;;;;;8.15;7.35;;;31.50;72.80;;;;;;5025019;28;20182;-72
2022/08/17 13:48:08;;;;;;;7.00;6.30;;;31.60;72.10;;;;;;5024059;28;20175;-76
2022/08/17 13:50:54;;;;;;;7.72;7.03;;;31.80;72.60;;;;;;5010893;28;20193;-77
2022/08/17 13:53:31;;;;;;;7.90;7.13;;;31.90;70.50;;;;;;5013492;28;20233;-76
2022/08/17 13:56:08;;;;;;;8.15;6.90;;;32.00;72.40;;;;;;5007750;28;20291;-80
2022/08/17 13:58:39;;;;;;;6.90;6.05;;;32.00;70.80;;;;;;5007099;28;20170;-81